createdAt,value
2022-07-25T00:00:56.217Z,21.70
2022-07-25T00:03:26.879Z,21.64
2022-07-25T00:05:58.683Z,21.61
2022-07-25T00:08:28.700Z,21.59
2022-07-25T00:10:58.811Z,21.53
2022-07-25T00:13:30.850Z,21.49
2022-07-25T00:16:01.124Z,21.48
2022-07-25T00:18:30.756Z,21.48
2022-07-25T00:21:00.949Z,21.44
2022-07-25T00:23:29.424Z,21.37
2022-07-25T00:25:59.413Z,21.31
2022-07-25T00:28:30.203Z,21.23
2022-07-25T00:30:59.383Z,21.21
2022-07-25T00:33:28.969Z,21.16
2022-07-25T00:35:58.069Z,21.11
2022-07-25T00:38:27.518Z,21.11
2022-07-25T00:40:57.098Z,21.07
2022-07-25T00:43:26.665Z,21.03
2022-07-25T00:45:58.776Z,20.95
2022-07-25T00:48:30.557Z,20.90
2022-07-25T00:51:00.373Z,20.89
2022-07-25T00:53:30.472Z,20.89
2022-07-25T00:56:00.444Z,20.89
2022-07-25T00:58:29.978Z,20.84
2022-07-25T01:01:02.710Z,20.82
2022-07-25T01:03:32.692Z,20.74
2022-07-25T01:06:01.913Z,20.72
2022-07-25T01:08:32.445Z,20.73
2022-07-25T01:11:03.039Z,20.77
2022-07-25T01:13:35.698Z,20.73
2022-07-25T01:16:08.084Z,20.62
2022-07-25T01:18:38.427Z,20.55
2022-07-25T01:21:10.402Z,20.52
2022-07-25T01:23:41.106Z,20.41
2022-07-25T01:26:11.373Z,20.37
2022-07-25T01:28:41.484Z,20.41
2022-07-25T01:31:12.172Z,20.41
2022-07-25T01:33:41.815Z,20.35
2022-07-25T01:36:13.616Z,20.30
2022-07-25T01:38:43.056Z,20.29
2022-07-25T01:41:12.686Z,20.27
2022-07-25T01:43:52.875Z,20.26
2022-07-25T01:46:23.578Z,20.25
2022-07-25T01:48:53.627Z,20.24
2022-07-25T01:51:24.032Z,20.21
2022-07-25T01:53:56.062Z,20.12
2022-07-25T01:56:26.725Z,20.02
2022-07-25T01:58:59.229Z,19.99
2022-07-25T02:01:29.970Z,19.98
2022-07-25T02:04:01.186Z,19.98
2022-07-25T02:06:32.079Z,19.95
2022-07-25T02:09:02.437Z,19.92
2022-07-25T02:11:32.184Z,19.86
2022-07-25T02:14:03.105Z,19.82
2022-07-25T02:16:33.978Z,19.78
2022-07-25T02:19:04.237Z,19.82
2022-07-25T02:21:36.635Z,19.83
2022-07-25T02:24:07.834Z,19.71
2022-07-25T02:26:38.799Z,19.71
2022-07-25T02:29:08.857Z,19.72
2022-07-25T02:31:38.884Z,19.70
2022-07-25T02:34:08.926Z,19.63
2022-07-25T02:36:40.648Z,19.56
2022-07-25T02:39:09.701Z,19.59
2022-07-25T02:41:39.625Z,19.57
2022-07-25T02:44:09.767Z,19.57
2022-07-25T02:46:39.168Z,19.56
2022-07-25T02:49:09.369Z,19.57
2022-07-25T02:51:41.553Z,19.56
2022-07-25T02:54:11.125Z,19.54
2022-07-25T02:56:42.074Z,19.55
2022-07-25T02:59:10.934Z,19.56
2022-07-25T03:01:40.468Z,19.56
2022-07-25T03:04:11.770Z,19.55
2022-07-25T03:06:43.358Z,19.53
2022-07-25T03:09:13.105Z,19.47
2022-07-25T03:11:43.863Z,19.45
2022-07-25T03:14:14.253Z,19.42
2022-07-25T03:16:44.294Z,19.41
2022-07-25T03:19:15.039Z,19.38
2022-07-25T03:21:46.498Z,19.35
2022-07-25T03:24:16.873Z,19.30
2022-07-25T03:26:45.832Z,19.23
2022-07-25T03:29:16.551Z,19.20
2022-07-25T03:31:46.739Z,19.17
2022-07-25T03:34:16.973Z,19.17
2022-07-25T03:36:49.883Z,19.18
2022-07-25T03:39:20.605Z,19.18
2022-07-25T03:41:49.708Z,19.14
2022-07-25T03:44:19.603Z,19.10
2022-07-25T03:46:49.275Z,19.10
2022-07-25T03:49:18.307Z,19.07
2022-07-25T03:51:50.043Z,19.06
2022-07-25T03:54:19.605Z,19.02
2022-07-25T03:56:51.232Z,19.01
2022-07-25T03:59:23.224Z,18.96
2022-07-25T04:01:53.615Z,18.97
2022-07-25T04:04:23.094Z,18.98
2022-07-25T04:06:54.641Z,18.97
2022-07-25T04:09:33.852Z,18.96
2022-07-25T04:12:05.595Z,18.98
2022-07-25T04:14:36.027Z,18.97
2022-07-25T04:17:07.046Z,18.95
2022-07-25T04:19:36.629Z,18.92
2022-07-25T04:22:08.202Z,18.93
2022-07-25T04:24:38.272Z,18.94
2022-07-25T04:27:08.897Z,18.94
2022-07-25T04:29:38.458Z,18.91
2022-07-25T04:32:10.492Z,18.91
2022-07-25T04:34:40.284Z,18.93
2022-07-25T04:37:11.108Z,18.89
2022-07-25T04:39:40.248Z,18.89
2022-07-25T04:42:11.573Z,18.88
2022-07-25T04:44:40.044Z,18.88
2022-07-25T04:47:11.225Z,18.90
2022-07-25T04:49:41.317Z,18.90
2022-07-25T04:52:12.166Z,18.89
2022-07-25T04:54:42.840Z,18.94
2022-07-25T04:57:13.377Z,18.96
2022-07-25T04:59:44.937Z,18.98
2022-07-25T05:02:15.303Z,18.99
2022-07-25T05:04:45.732Z,18.99
2022-07-25T05:07:17.167Z,19.02
2022-07-25T05:09:47.794Z,19.05
2022-07-25T05:12:20.905Z,19.07
2022-07-25T05:14:50.477Z,19.11
2022-07-25T05:17:20.601Z,19.12
2022-07-25T05:19:51.254Z,19.14
2022-07-25T05:22:26.421Z,19.17
2022-07-25T05:24:59.801Z,19.22
2022-07-25T05:27:30.067Z,19.27
2022-07-25T05:30:00.773Z,19.30
2022-07-25T05:32:31.204Z,19.35
2022-07-25T05:35:01.895Z,19.38
2022-07-25T05:37:34.568Z,19.43
2022-07-25T05:40:05.338Z,19.48
2022-07-25T05:42:35.543Z,19.55
2022-07-25T05:45:06.917Z,19.59
2022-07-25T05:47:37.678Z,19.64
2022-07-25T05:50:11.228Z,19.67
2022-07-25T05:52:41.794Z,19.71
2022-07-25T05:55:13.674Z,19.74
2022-07-25T05:57:43.258Z,19.78
2022-07-25T06:00:13.648Z,19.82
2022-07-25T06:02:42.831Z,19.87
2022-07-25T06:05:12.606Z,19.92
2022-07-25T06:07:43.612Z,19.96
2022-07-25T06:10:14.360Z,20.01
2022-07-25T06:12:44.537Z,20.05
2022-07-25T06:15:22.066Z,20.10
2022-07-25T06:17:51.636Z,20.15
2022-07-25T06:20:21.416Z,20.19
2022-07-25T06:22:51.480Z,20.25
2022-07-25T06:25:21.388Z,20.31
2022-07-25T06:27:51.508Z,20.35
2022-07-25T06:30:21.414Z,20.41
2022-07-25T06:32:50.685Z,20.46
2022-07-25T06:35:21.573Z,20.50
2022-07-25T06:37:53.142Z,20.56
2022-07-25T06:40:22.656Z,20.62
2022-07-25T06:42:53.285Z,20.69
2022-07-25T06:45:25.204Z,20.73
2022-07-25T06:47:54.854Z,20.78
2022-07-25T06:50:23.525Z,20.83
2022-07-25T06:52:55.616Z,20.89
2022-07-25T06:55:25.760Z,20.94
2022-07-25T06:57:55.354Z,20.99
2022-07-25T07:00:24.879Z,21.06
2022-07-25T07:02:58.255Z,21.12
2022-07-25T07:05:30.430Z,21.21
2022-07-25T07:08:02.660Z,21.29
2022-07-25T07:10:32.782Z,21.36
2022-07-25T07:13:08.950Z,21.45
2022-07-25T07:15:39.784Z,21.53
2022-07-25T07:18:10.226Z,21.61
2022-07-25T07:20:41.237Z,21.67
2022-07-25T07:23:12.626Z,21.73
2022-07-25T07:25:47.732Z,21.84
2022-07-25T07:28:18.664Z,21.92
2022-07-25T07:33:39.199Z,22.21
2022-07-25T07:36:10.074Z,22.37
2022-07-25T07:38:42.174Z,22.52
2022-07-25T07:41:11.324Z,22.67
2022-07-25T07:43:41.032Z,22.78
2022-07-25T07:46:10.583Z,22.90
2022-07-25T07:48:41.000Z,23.01
2022-07-25T07:51:10.183Z,23.20
2022-07-25T07:53:59.365Z,23.35
2022-07-25T07:56:28.928Z,23.47
2022-07-25T07:58:59.226Z,23.57
2022-07-25T08:01:28.970Z,23.74
2022-07-25T08:03:59.837Z,23.89
2022-07-25T08:06:30.528Z,24.14
2022-07-25T08:09:01.675Z,24.28
2022-07-25T08:11:30.816Z,24.41
2022-07-25T08:14:00.278Z,24.54
2022-07-25T08:16:31.276Z,24.75
2022-07-25T08:19:00.403Z,24.98
2022-07-25T08:21:30.704Z,25.13
2022-07-25T08:24:01.693Z,25.32
2022-07-25T08:26:34.553Z,25.46
2022-07-25T08:29:18.859Z,25.59
2022-07-25T08:31:49.049Z,25.65
2022-07-25T08:34:22.865Z,25.66
2022-07-25T08:36:52.471Z,25.73
2022-07-25T08:39:22.849Z,25.76
2022-07-25T08:41:52.792Z,25.80
2022-07-25T08:44:24.472Z,25.88
2022-07-25T08:46:54.658Z,25.94
2022-07-25T08:49:24.780Z,26.03
2022-07-25T08:51:55.148Z,26.14
2022-07-25T08:54:26.111Z,26.18
2022-07-25T08:56:55.218Z,26.30
2022-07-25T08:59:24.794Z,26.47
2022-07-25T09:01:54.613Z,26.55
2022-07-25T09:04:24.482Z,26.64
2022-07-25T09:06:53.992Z,26.73
2022-07-25T09:09:35.006Z,26.81
2022-07-25T09:12:04.100Z,26.90
2022-07-25T09:14:44.039Z,26.99
2022-07-25T09:17:21.919Z,27.06
2022-07-25T09:19:58.601Z,27.19
2022-07-25T09:22:31.045Z,27.32
2022-07-25T09:25:02.615Z,27.36
2022-07-25T09:27:36.357Z,27.40
2022-07-25T09:30:17.340Z,27.44
2022-07-25T09:32:47.150Z,27.55
2022-07-25T09:35:16.894Z,27.69
2022-07-25T09:37:47.179Z,27.78
2022-07-25T09:40:17.875Z,27.88
2022-07-25T09:42:53.168Z,27.95
2022-07-25T09:45:22.145Z,28.06
2022-07-25T09:47:58.048Z,28.15
2022-07-25T09:50:31.180Z,28.24
2022-07-25T09:53:03.667Z,28.31
2022-07-25T09:55:34.392Z,28.41
2022-07-25T09:58:03.957Z,28.47
2022-07-25T10:00:34.057Z,28.50
2022-07-25T10:03:27.036Z,28.59
2022-07-25T10:06:15.780Z,28.69
2022-07-25T10:08:46.951Z,28.78
2022-07-25T10:11:27.586Z,28.88
2022-07-25T10:13:58.702Z,28.93
2022-07-25T10:16:29.989Z,29.01
2022-07-25T10:19:00.882Z,29.06
2022-07-25T10:21:30.924Z,29.08
2022-07-25T10:24:06.945Z,29.09
2022-07-25T10:26:41.772Z,29.14
2022-07-25T10:29:13.798Z,29.21
2022-07-25T10:31:50.945Z,29.25
2022-07-25T10:34:32.418Z,29.35
2022-07-25T10:37:12.714Z,29.39
2022-07-25T10:39:45.994Z,29.42
2022-07-25T10:42:22.347Z,29.45
2022-07-25T10:44:58.066Z,29.50
2022-07-25T10:47:30.176Z,29.55
2022-07-25T10:50:22.232Z,29.59
2022-07-25T10:53:00.872Z,29.69
2022-07-25T10:55:30.487Z,29.74
2022-07-25T10:58:17.443Z,29.82
2022-07-25T11:00:47.746Z,29.85
2022-07-25T11:03:18.894Z,29.92
2022-07-25T11:05:48.787Z,29.98
2022-07-25T11:08:22.250Z,30.04
2022-07-25T11:10:54.342Z,30.06
2022-07-25T11:13:24.798Z,30.01
2022-07-25T11:15:59.888Z,30.04
2022-07-25T11:18:38.323Z,29.99
2022-07-25T11:21:10.950Z,30.03
2022-07-25T11:23:43.592Z,30.03
2022-07-25T11:26:15.442Z,30.06
2022-07-25T11:28:49.163Z,30.04
2022-07-25T11:31:24.150Z,30.03
2022-07-25T11:33:53.088Z,30.03
2022-07-25T11:36:23.011Z,30.01
2022-07-25T11:38:53.507Z,29.99
2022-07-25T11:41:32.077Z,29.90
2022-07-25T11:44:03.656Z,29.92
2022-07-25T11:46:45.068Z,29.94
2022-07-25T11:49:15.636Z,29.89
2022-07-25T11:51:46.797Z,29.93
2022-07-25T11:54:17.524Z,29.93
2022-07-25T11:56:47.907Z,29.89
2022-07-25T11:59:19.043Z,29.93
2022-07-25T12:01:48.021Z,29.93
2022-07-25T12:04:22.819Z,29.95
2022-07-25T12:06:52.733Z,29.95
2022-07-25T12:09:24.968Z,29.89
2022-07-25T12:12:06.012Z,29.92
2022-07-25T12:14:44.623Z,29.98
2022-07-25T12:17:14.465Z,29.99
2022-07-25T12:19:47.694Z,30.05
2022-07-25T12:22:17.709Z,30.12
2022-07-25T12:24:47.376Z,30.21
2022-07-25T12:27:17.438Z,30.24
2022-07-25T12:29:48.371Z,30.32
2022-07-25T12:32:19.023Z,30.34
2022-07-25T12:34:49.153Z,30.42
2022-07-25T12:37:19.933Z,30.51
2022-07-25T12:39:49.463Z,30.55
2022-07-25T12:42:20.217Z,30.66
2022-07-25T12:44:50.842Z,30.67
2022-07-25T12:47:20.830Z,30.68
2022-07-25T12:49:50.052Z,30.71
2022-07-25T12:52:19.726Z,30.69
2022-07-25T12:54:50.427Z,30.69
2022-07-25T12:57:21.506Z,30.72
2022-07-25T12:59:53.371Z,30.72
2022-07-25T13:02:22.370Z,30.74
2022-07-25T13:04:50.962Z,30.66
2022-07-25T13:07:20.328Z,30.59
2022-07-25T13:09:49.508Z,30.69
2022-07-25T13:12:20.401Z,30.73
2022-07-25T13:14:52.356Z,30.79
2022-07-25T13:17:27.262Z,30.91
2022-07-25T13:19:58.040Z,31.00
2022-07-25T13:22:28.676Z,31.11
2022-07-25T13:24:58.320Z,31.17
2022-07-25T13:27:29.094Z,31.22
2022-07-25T13:30:00.221Z,31.31
2022-07-25T13:32:32.785Z,31.37
2022-07-25T13:35:02.803Z,31.38
2022-07-25T13:37:34.030Z,31.48
2022-07-25T13:40:06.248Z,31.49
2022-07-25T13:42:35.583Z,31.59
2022-07-25T13:45:11.644Z,31.64
2022-07-25T13:47:41.810Z,31.69
2022-07-25T13:50:13.952Z,31.75
2022-07-25T13:52:44.161Z,31.82
2022-07-25T13:55:13.839Z,31.83
2022-07-25T13:57:43.034Z,31.84
2022-07-25T14:00:17.180Z,31.86
2022-07-25T14:02:47.273Z,31.83
2022-07-25T14:05:16.325Z,31.84
2022-07-25T14:07:47.035Z,31.85
2022-07-25T14:10:16.671Z,31.94
2022-07-25T14:12:46.358Z,32.00
2022-07-25T14:15:18.231Z,32.00
2022-07-25T14:17:47.780Z,31.90
2022-07-25T14:20:17.282Z,31.85
2022-07-25T14:22:46.977Z,31.83
2022-07-25T14:25:16.618Z,31.77
2022-07-25T14:27:46.874Z,31.70
2022-07-25T14:30:18.534Z,31.72
2022-07-25T14:32:48.598Z,31.87
2022-07-25T14:35:19.022Z,31.89
2022-07-25T14:37:49.383Z,31.92
2022-07-25T14:40:19.107Z,32.05
2022-07-25T14:42:49.815Z,32.07
2022-07-25T14:45:22.504Z,32.07
2022-07-25T14:47:51.575Z,32.10
2022-07-25T14:50:21.242Z,32.17
2022-07-25T14:52:51.800Z,32.15
2022-07-25T14:55:22.308Z,32.07
2022-07-25T14:57:52.491Z,32.04
2022-07-25T15:00:29.154Z,32.15
2022-07-25T15:02:58.954Z,32.09
2022-07-25T15:05:27.399Z,32.04
2022-07-25T15:07:57.441Z,32.02
2022-07-25T15:10:26.987Z,31.96
2022-07-25T15:13:20.841Z,31.89
2022-07-25T15:15:48.887Z,31.83
2022-07-25T15:18:19.449Z,31.69
2022-07-25T15:20:48.728Z,31.66
2022-07-25T15:23:21.457Z,31.63
2022-07-25T15:26:06.298Z,31.69
2022-07-25T15:28:39.752Z,31.73
2022-07-25T15:31:10.807Z,31.76
2022-07-25T15:33:40.825Z,31.66
2022-07-25T15:36:12.443Z,31.56
2022-07-25T15:38:41.700Z,31.35
2022-07-25T15:41:12.563Z,31.29
2022-07-25T15:43:42.181Z,31.22
2022-07-25T15:46:17.045Z,31.19
2022-07-25T15:48:47.068Z,31.16
2022-07-25T15:51:17.905Z,31.02
2022-07-25T15:53:48.576Z,30.98
2022-07-25T15:56:18.745Z,30.97
2022-07-25T15:58:50.391Z,30.90
2022-07-25T16:01:26.454Z,30.77
2022-07-25T16:04:00.414Z,30.78
2022-07-25T16:06:30.118Z,30.63
2022-07-25T16:09:01.454Z,30.60
2022-07-25T16:11:31.287Z,30.63
2022-07-25T16:14:00.313Z,30.53
2022-07-25T16:16:31.169Z,30.59
2022-07-25T16:19:00.508Z,30.58
2022-07-25T16:21:30.950Z,30.38
2022-07-25T16:24:00.021Z,30.33
2022-07-25T16:26:30.031Z,30.31
2022-07-25T16:28:59.984Z,30.31
2022-07-25T16:31:30.484Z,30.32
2022-07-25T16:34:00.816Z,30.27
2022-07-25T16:36:30.615Z,30.33
2022-07-25T16:39:01.762Z,30.23
2022-07-25T16:41:31.547Z,30.08
2022-07-25T16:44:03.298Z,30.00
2022-07-25T16:46:33.936Z,29.91
2022-07-25T16:49:03.867Z,29.88
2022-07-25T16:51:37.022Z,29.91
2022-07-25T16:54:08.607Z,29.88
2022-07-25T16:56:39.022Z,29.88
2022-07-25T16:59:11.222Z,29.93
2022-07-25T17:01:42.954Z,29.81
2022-07-25T17:04:13.324Z,29.76
2022-07-25T17:06:44.046Z,29.74
2022-07-25T17:09:14.303Z,29.71
2022-07-25T17:11:43.651Z,29.57
2022-07-25T17:14:14.158Z,29.47
2022-07-25T17:16:45.390Z,29.37
2022-07-25T17:19:15.464Z,29.19
2022-07-25T17:21:46.517Z,29.16
2022-07-25T17:24:16.468Z,29.13
2022-07-25T17:26:46.107Z,29.13
2022-07-25T17:29:16.650Z,29.00
2022-07-25T17:31:48.915Z,28.75
2022-07-25T17:34:18.650Z,28.73
2022-07-25T17:36:49.745Z,28.60
2022-07-25T17:39:19.548Z,28.62
2022-07-25T17:41:50.307Z,28.50
2022-07-25T17:44:19.873Z,28.41
2022-07-25T17:46:53.347Z,28.33
2022-07-25T17:49:23.375Z,28.32
2022-07-25T17:51:54.077Z,28.20
2022-07-25T17:54:24.299Z,28.14
2022-07-25T17:56:54.546Z,27.99
2022-07-25T17:59:23.650Z,28.00
2022-07-25T18:01:55.269Z,27.98
2022-07-25T18:04:24.888Z,27.95
2022-07-25T18:06:54.508Z,27.73
2022-07-25T18:09:24.246Z,27.60
2022-07-25T18:11:55.764Z,27.54
2022-07-25T18:14:25.781Z,27.52
2022-07-25T18:16:56.914Z,27.46
2022-07-25T18:19:27.666Z,27.38
2022-07-25T18:21:56.904Z,27.31
2022-07-25T18:24:29.409Z,27.27
2022-07-25T18:26:59.484Z,27.29
2022-07-25T18:29:28.849Z,27.24
2022-07-25T18:31:59.939Z,27.15
2022-07-25T18:34:31.803Z,27.09
2022-07-25T18:37:02.583Z,27.06
2022-07-25T18:39:32.192Z,27.10
2022-07-25T18:42:02.465Z,27.06
2022-07-25T18:44:32.539Z,26.99
2022-07-25T18:47:04.995Z,27.02
2022-07-25T18:49:37.439Z,27.01
2022-07-25T18:52:07.595Z,26.89
2022-07-25T18:54:38.880Z,26.84
2022-07-25T18:57:08.067Z,26.91
2022-07-25T18:59:37.588Z,26.93
2022-07-25T19:02:09.356Z,26.92
2022-07-25T19:04:39.092Z,26.75
2022-07-25T19:07:09.333Z,26.76
2022-07-25T19:09:38.156Z,26.64
2022-07-25T19:12:11.049Z,26.68
2022-07-25T19:14:41.188Z,26.70
2022-07-25T19:17:13.140Z,26.63
2022-07-25T19:19:42.714Z,26.59
2022-07-25T19:22:12.838Z,26.57
2022-07-25T19:24:41.372Z,26.55
2022-07-25T19:27:11.181Z,26.53
2022-07-25T19:29:40.090Z,26.50
2022-07-25T19:32:11.880Z,26.45
2022-07-25T19:34:42.680Z,26.44
2022-07-25T19:37:12.295Z,26.43
2022-07-25T19:39:41.898Z,26.39
2022-07-25T19:42:12.855Z,26.36
2022-07-25T19:44:43.239Z,26.34
2022-07-25T19:47:14.108Z,26.31
2022-07-25T19:49:43.115Z,26.30
2022-07-25T19:52:12.785Z,26.20
2022-07-25T19:54:42.056Z,26.06
2022-07-25T19:57:12.873Z,26.07
2022-07-25T19:59:41.913Z,25.98
2022-07-25T20:02:11.990Z,25.94
2022-07-25T20:04:42.678Z,25.83
2022-07-25T20:07:12.235Z,25.78
2022-07-25T20:09:42.905Z,25.75
2022-07-25T20:12:12.637Z,25.72
2022-07-25T20:14:41.707Z,25.62
2022-07-25T20:17:11.737Z,25.65
2022-07-25T20:19:43.168Z,25.62
2022-07-25T20:22:13.583Z,25.52
2022-07-25T20:24:43.602Z,25.48
2022-07-25T20:27:13.847Z,25.45
2022-07-25T20:29:42.903Z,25.41
2022-07-25T20:32:13.930Z,25.30
2022-07-25T20:34:45.914Z,25.25
2022-07-25T20:37:15.308Z,25.20
2022-07-25T20:39:44.767Z,25.16
2022-07-25T20:42:18.925Z,25.05
2022-07-25T20:44:48.945Z,25.04
2022-07-25T20:47:17.689Z,24.94
2022-07-25T20:49:47.888Z,24.90
2022-07-25T20:52:17.293Z,24.78
2022-07-25T20:54:46.741Z,24.72
2022-07-25T20:57:16.871Z,24.66
2022-07-25T20:59:46.941Z,24.56
2022-07-25T21:02:17.387Z,24.55
2022-07-25T21:04:49.185Z,24.43
2022-07-25T21:07:19.211Z,24.35
2022-07-25T21:09:49.129Z,24.31
2022-07-25T21:12:17.997Z,24.24
2022-07-25T21:14:48.187Z,24.18
2022-07-25T21:17:17.716Z,24.12
2022-07-25T21:19:49.875Z,24.03
2022-07-25T21:22:20.684Z,23.97
2022-07-25T21:24:50.462Z,23.94
2022-07-25T21:27:19.768Z,23.89
2022-07-25T21:29:48.657Z,23.85
2022-07-25T21:32:18.443Z,23.76
2022-07-25T21:34:50.906Z,23.69
2022-07-25T21:37:20.845Z,23.63
2022-07-25T21:39:51.436Z,23.59
2022-07-25T21:42:21.393Z,23.56
2022-07-25T21:44:51.074Z,23.58
2022-07-25T21:47:21.203Z,23.52
2022-07-25T21:50:09.829Z,23.41
2022-07-25T21:52:43.542Z,23.37
2022-07-25T21:55:14.136Z,23.32
2022-07-25T21:57:44.221Z,23.29
2022-07-25T22:00:18.356Z,23.24
2022-07-25T22:02:49.700Z,23.24
2022-07-25T22:05:21.799Z,23.22
2022-07-25T22:07:52.969Z,23.17
2022-07-25T22:10:23.290Z,23.12
2022-07-25T22:12:54.988Z,23.11
2022-07-25T22:15:24.043Z,23.12
2022-07-25T22:17:55.177Z,23.09
2022-07-25T22:20:27.480Z,23.06
2022-07-25T22:22:58.156Z,23.05
2022-07-25T22:25:27.391Z,23.03
2022-07-25T22:27:56.288Z,22.99
2022-07-25T22:30:26.769Z,22.97
2022-07-25T22:32:57.372Z,22.91
2022-07-25T22:35:28.098Z,22.85
2022-07-25T22:37:58.668Z,22.74
2022-07-25T22:40:28.714Z,22.70
2022-07-25T22:42:58.060Z,22.71
2022-07-25T22:45:28.219Z,22.66
2022-07-25T22:47:58.100Z,22.57
2022-07-25T22:50:28.932Z,22.61
2022-07-25T22:52:58.174Z,22.55
2022-07-25T22:55:27.159Z,22.44
2022-07-25T22:57:55.603Z,22.39
2022-07-25T23:00:24.076Z,22.39
2022-07-25T23:02:52.592Z,22.32
2022-07-25T23:05:21.122Z,22.28
2022-07-25T23:07:50.955Z,22.23
2022-07-25T23:10:19.371Z,22.19
2022-07-25T23:12:47.935Z,22.12
2022-07-25T23:15:16.463Z,22.15
2022-07-25T23:17:44.985Z,22.06
2022-07-25T23:20:13.875Z,22.09
2022-07-25T23:22:42.379Z,22.03
2022-07-25T23:25:15.366Z,21.92
2022-07-25T23:27:46.829Z,21.85
2022-07-25T23:30:16.569Z,21.84
2022-07-25T23:32:45.648Z,21.84
2022-07-25T23:35:14.396Z,21.83
2022-07-25T23:37:43.218Z,21.85
2022-07-25T23:40:14.888Z,21.84
2022-07-25T23:42:43.929Z,21.78
2022-07-25T23:45:12.825Z,21.71
2022-07-25T23:47:41.622Z,21.58
2022-07-25T23:50:12.625Z,21.54
2022-07-25T23:52:41.120Z,21.48
2022-07-25T23:55:11.185Z,21.46
2022-07-25T23:57:41.080Z,21.43
